createdAt,value
2023-03-11T00:03:37.613Z,61.20
2023-03-11T00:10:42.002Z,60.00
2023-03-11T00:17:44.115Z,49.40
2023-03-11T00:24:46.237Z,49.22
2023-03-11T00:31:48.246Z,53.88
2023-03-11T00:38:50.886Z,52.33
2023-03-11T00:45:53.051Z,56.88
2023-03-11T00:52:55.169Z,50.85
2023-03-11T00:59:57.242Z,47.10
2023-03-11T01:06:59.264Z,51.15
2023-03-11T01:14:01.321Z,43.90
2023-03-11T01:21:03.649Z,45.25
2023-03-11T01:28:08.527Z,45.67
2023-03-11T01:35:13.618Z,45.13
2023-03-11T01:42:15.670Z,44.53
2023-03-11T01:49:17.864Z,43.50
2023-03-11T01:56:21.665Z,43.10
2023-03-11T02:03:31.132Z,36.95
2023-03-11T02:10:33.146Z,34.90
2023-03-11T02:17:35.621Z,33.30
2023-03-11T02:24:47.041Z,40.97
2023-03-11T02:31:50.232Z,33.30
2023-03-11T02:38:52.466Z,28.38
2023-03-11T02:45:54.907Z,31.85
2023-03-11T02:52:56.919Z,38.28
2023-03-11T03:00:00.293Z,34.70
2023-03-11T03:07:02.375Z,31.45
2023-03-11T03:14:04.436Z,33.72
2023-03-11T03:21:06.550Z,31.73
2023-03-11T03:28:08.565Z,31.58
2023-03-11T03:35:10.910Z,36.88
2023-03-11T03:42:12.933Z,36.55
2023-03-11T03:49:14.965Z,45.63
2023-03-11T03:56:18.723Z,38.85
2023-03-11T04:03:20.738Z,35.28
2023-03-11T04:10:22.745Z,39.47
2023-03-11T04:17:24.714Z,38.72
2023-03-11T04:24:26.714Z,37.25
2023-03-11T04:31:28.748Z,31.80
2023-03-11T04:38:30.701Z,38.42
2023-03-11T04:45:32.785Z,29.05
2023-03-11T04:52:34.808Z,39.38
2023-03-11T04:59:36.876Z,33.42
2023-03-11T05:06:39.164Z,38.22
2023-03-11T05:13:41.164Z,30.50
2023-03-11T05:20:43.170Z,37.95
2023-03-11T05:27:45.195Z,45.15
2023-03-11T05:34:47.179Z,40.72
2023-03-11T05:41:49.298Z,37.30
2023-03-11T05:48:51.211Z,35.45
2023-03-11T05:55:58.023Z,49.92
2023-03-11T06:03:00.119Z,52.00
2023-03-11T06:10:03.140Z,64.82
2023-03-11T06:17:05.333Z,41.60
2023-03-11T06:24:07.685Z,40.78
2023-03-11T06:31:16.130Z,50.55
2023-03-11T06:38:18.226Z,38.58
2023-03-11T06:45:20.803Z,52.88
2023-03-11T06:52:23.017Z,36.30
2023-03-11T06:59:25.111Z,41.88
2023-03-11T07:06:28.001Z,49.28
2023-03-11T07:13:30.024Z,29.02
2023-03-11T07:20:31.965Z,34.78
2023-03-11T07:27:34.000Z,33.38
2023-03-11T07:34:36.253Z,31.33
2023-03-11T07:41:38.254Z,45.80
2023-03-11T07:48:40.796Z,41.60
2023-03-11T07:55:42.834Z,37.50
2023-03-11T08:02:44.787Z,38.28
2023-03-11T08:09:46.950Z,19.40
2023-03-11T08:16:48.996Z,21.20
2023-03-11T08:23:51.938Z,27.63
2023-03-11T08:30:53.917Z,11.82
2023-03-11T08:37:56.105Z,33.08
2023-03-11T08:44:58.096Z,41.15
2023-03-11T08:52:00.379Z,9.95
2023-03-11T08:59:02.755Z,41.53
2023-03-11T09:06:07.962Z,28.67
2023-03-11T09:13:10.016Z,29.10
2023-03-11T09:20:13.880Z,21.20
2023-03-11T09:27:16.104Z,24.98
2023-03-11T09:34:18.141Z,26.75
2023-03-11T09:41:26.196Z,17.58
2023-03-11T09:48:40.843Z,18.48
2023-03-11T09:55:44.809Z,17.33
2023-03-11T10:02:47.262Z,10.50
2023-03-11T10:09:52.943Z,9.55
2023-03-11T10:17:00.358Z,7.47
2023-03-11T10:24:02.439Z,9.52
2023-03-11T10:31:07.399Z,10.57
2023-03-11T10:38:17.535Z,8.35
2023-03-11T10:45:21.215Z,7.22
2023-03-11T10:52:23.208Z,5.05
2023-03-11T10:59:34.662Z,7.05
2023-03-11T11:06:37.567Z,8.95
2023-03-11T11:13:39.500Z,3.72
2023-03-11T11:21:05.546Z,6.35
2023-03-11T11:28:23.296Z,5.97
2023-03-11T11:35:28.362Z,8.00
2023-03-11T11:42:35.318Z,8.13
2023-03-11T11:49:40.139Z,7.90
2023-03-11T11:56:50.457Z,13.13
2023-03-11T12:04:24.211Z,11.30
2023-03-11T12:11:52.642Z,8.48
2023-03-11T12:19:04.909Z,10.40
2023-03-11T12:26:37.998Z,8.45
2023-03-11T12:34:10.567Z,8.23
2023-03-11T12:41:45.195Z,7.57
2023-03-11T12:49:15.727Z,12.10
2023-03-11T12:56:38.628Z,8.73
2023-03-11T13:03:54.844Z,13.50
2023-03-11T13:11:03.346Z,15.32
2023-03-11T13:18:23.040Z,5.27
2023-03-11T13:25:54.090Z,15.25
2023-03-11T13:33:41.606Z,9.38
2023-03-11T13:40:48.235Z,22.17
2023-03-11T13:47:56.345Z,4.63
2023-03-11T13:55:09.622Z,11.15
2023-03-11T14:02:26.465Z,7.18
2023-03-11T14:09:31.182Z,6.93
2023-03-11T14:16:44.206Z,7.60
2023-03-11T14:23:51.147Z,7.55
2023-03-11T14:30:58.644Z,8.15
2023-03-11T14:38:01.082Z,4.13
2023-03-11T14:45:16.184Z,6.05
2023-03-11T14:52:46.266Z,6.00
2023-03-11T15:06:51.566Z,5.70
2023-03-11T15:13:54.267Z,6.88
2023-03-11T15:21:14.325Z,7.15
2023-03-11T15:28:29.471Z,8.20
2023-03-11T15:35:31.708Z,5.90
2023-03-11T15:42:43.872Z,5.15
2023-03-11T15:49:51.897Z,6.18
2023-03-11T15:57:03.048Z,5.10
2023-03-11T16:04:19.069Z,6.45
2023-03-11T16:11:28.348Z,3.92
2023-03-11T16:18:35.492Z,4.38
2023-03-11T16:25:46.353Z,8.00
2023-03-11T16:32:48.597Z,3.85
2023-03-11T16:39:50.744Z,5.70
2023-03-11T16:46:53.718Z,4.72
2023-03-11T16:53:56.474Z,5.50
2023-03-11T17:00:59.285Z,4.00
2023-03-11T17:08:04.943Z,4.95
2023-03-11T17:15:08.676Z,8.55
2023-03-11T17:22:13.131Z,7.45
2023-03-11T17:29:22.317Z,4.63
2023-03-11T17:36:29.810Z,4.22
2023-03-11T17:43:38.126Z,4.38
2023-03-11T17:50:47.268Z,4.22
2023-03-11T17:57:56.257Z,12.68
2023-03-11T18:05:04.296Z,3.90
2023-03-11T18:12:15.151Z,6.38
2023-03-11T18:19:30.292Z,3.47
2023-03-11T18:26:37.327Z,3.85
2023-03-11T18:33:46.523Z,8.07
2023-03-11T18:41:02.138Z,7.38
2023-03-11T18:48:12.657Z,3.72
2023-03-11T18:55:27.209Z,8.25
2023-03-11T19:02:32.481Z,4.90
2023-03-11T19:09:42.689Z,8.38
2023-03-11T19:16:46.368Z,4.35
2023-03-11T19:23:55.539Z,7.00
2023-03-11T19:31:08.409Z,3.80
2023-03-11T19:38:12.061Z,3.97
2023-03-11T19:45:15.127Z,3.67
2023-03-11T19:52:18.606Z,5.30
2023-03-11T19:59:24.445Z,3.45
2023-03-11T20:06:29.366Z,12.32
2023-03-11T20:13:36.019Z,5.13
2023-03-11T20:20:40.783Z,8.02
2023-03-11T20:27:45.164Z,5.65
2023-03-11T20:34:51.289Z,10.95
2023-03-11T20:42:00.203Z,4.78
2023-03-11T20:49:05.086Z,8.83
2023-03-11T20:56:11.968Z,6.57
2023-03-11T21:03:15.890Z,6.82
2023-03-11T21:10:19.633Z,19.38
2023-03-11T21:17:22.225Z,3.60
2023-03-11T21:24:25.808Z,4.47
2023-03-11T21:31:29.636Z,5.75
2023-03-11T21:38:32.494Z,6.88
2023-03-11T21:45:35.067Z,4.80
2023-03-11T21:52:37.337Z,7.22
2023-03-11T21:59:39.534Z,6.88
2023-03-11T22:06:41.752Z,4.22
2023-03-11T22:13:48.824Z,3.22
2023-03-11T22:20:53.512Z,5.82
2023-03-11T22:28:05.821Z,2.65
2023-03-11T22:35:10.436Z,10.05
2023-03-11T22:42:14.762Z,5.50
2023-03-11T22:49:18.957Z,3.70
2023-03-11T22:56:26.728Z,7.35
2023-03-11T23:03:30.250Z,8.75
2023-03-11T23:10:32.499Z,12.20
2023-03-11T23:17:34.671Z,9.73
2023-03-11T23:24:36.712Z,4.50
2023-03-11T23:31:38.641Z,2.55
2023-03-11T23:38:40.844Z,2.78
2023-03-11T23:45:43.024Z,7.75
2023-03-11T23:52:45.183Z,5.90
2023-03-11T23:59:48.019Z,5.82
